EZY41E EGAA-EGPH
Flight info
| Callsign | EZY41E |
|---|---|
| Flight time | N/A |
| Altitude | 19000 |
| Route | BLACA P600 TUNSO |
| Aircraft | A20N/M-SDE2E3FGHIRWXY/LB1 |
Departure
| Time | 2026-04-28 16:28 |
|---|---|
| Airport | Belfast International Airport (EGAA) |
Arrival
| Time | N/A |
|---|---|
| Airport | Edinburgh Airport (EGPH) |
| Time | Latitude | Longitude | Altitude | Speed | Heading |
|---|---|---|---|---|---|
| 2026-04-28 16:15 | 54.65952 | -6.21914 | 242 ft | 0 kts | 64° |
| 2026-04-28 16:17 | 54.65952 | -6.21915 | 242 ft | 0 kts | 64° |
| 2026-04-28 16:18 | 54.65952 | -6.21914 | 242 ft | 0 kts | 64° |
| 2026-04-28 16:20 | 54.65951 | -6.21918 | 242 ft | 3 kts | 64° |
| 2026-04-28 16:20 | 54.65939 | -6.21959 | 241 ft | 4 kts | 62° |
| 2026-04-28 16:21 | 54.65926 | -6.21999 | 240 ft | 4 kts | 64° |
| 2026-04-28 16:21 | 54.65918 | -6.22041 | 239 ft | 4 kts | 101° |
| 2026-04-28 16:21 | 54.65923 | -6.22059 | 238 ft | 1 kts | 156° |
| 2026-04-28 16:21 | 54.65926 | -6.22061 | 238 ft | 0 kts | 155° |
| 2026-04-28 16:23 | 54.65924 | -6.22059 | 238 ft | 1 kts | 155° |
| 2026-04-28 16:24 | 54.65914 | -6.22051 | 239 ft | 3 kts | 155° |
| 2026-04-28 16:24 | 54.65889 | -6.22031 | 240 ft | 5 kts | 154° |
| 2026-04-28 16:24 | 54.65849 | -6.21996 | 241 ft | 8 kts | 153° |
| 2026-04-28 16:24 | 54.65824 | -6.22009 | 241 ft | 5 kts | 224° |
| 2026-04-28 16:25 | 54.65795 | -6.22085 | 240 ft | 9 kts | 255° |
| 2026-04-28 16:25 | 54.65771 | -6.22239 | 237 ft | 17 kts | 261° |
| 2026-04-28 16:25 | 54.65754 | -6.22492 | 229 ft | 25 kts | 262° |
| 2026-04-28 16:25 | 54.65727 | -6.22833 | 222 ft | 31 kts | 249° |
| 2026-04-28 16:26 | 54.65710 | -6.22897 | 221 ft | 31 kts | 239° |
| 2026-04-28 16:26 | 54.65687 | -6.22958 | 221 ft | 31 kts | 236° |
| 2026-04-28 16:26 | 54.65596 | -6.23165 | 224 ft | 12 kts | 230° |
| 2026-04-28 16:26 | 54.65536 | -6.23301 | 225 ft | 16 kts | 221° |
| 2026-04-28 16:27 | 54.65418 | -6.23393 | 223 ft | 21 kts | 204° |
| 2026-04-28 16:27 | 54.65307 | -6.23316 | 222 ft | 13 kts | 102° |
| 2026-04-28 16:27 | 54.65363 | -6.23028 | 227 ft | 11 kts | 62° |
| 2026-04-28 16:28 | 54.65453 | -6.22635 | 234 ft | 67 kts | 67° |
| 2026-04-28 16:28 | 54.65742 | -6.21607 | 245 ft | 125 kts | 64° |
| 2026-04-28 16:28 | 54.66188 | -6.19945 | 349 ft | 167 kts | 65° |
| 2026-04-28 16:28 | 54.66664 | -6.18145 | 987 ft | 163 kts | 66° |
| 2026-04-28 16:29 | 54.67517 | -6.14535 | 2510 ft | 169 kts | 71° |
| 2026-04-28 16:29 | 54.68355 | -6.10336 | 3404 ft | 211 kts | 70° |
| 2026-04-28 16:30 | 54.68893 | -6.07819 | 3723 ft | 238 kts | 70° |
| 2026-04-28 16:30 | 54.69503 | -6.05019 | 4211 ft | 258 kts | 69° |
| 2026-04-28 16:30 | 54.70150 | -6.02059 | 4947 ft | 267 kts | 69° |
| 2026-04-28 16:30 | 54.70812 | -5.99024 | 5793 ft | 272 kts | 70° |
| 2026-04-28 16:31 | 54.71488 | -5.95938 | 6689 ft | 276 kts | 69° |
| 2026-04-28 16:31 | 54.72191 | -5.92825 | 7596 ft | 280 kts | 69° |
| 2026-04-28 16:31 | 54.72904 | -5.89664 | 8508 ft | 284 kts | 69° |
| 2026-04-28 16:31 | 54.73615 | -5.86461 | 9397 ft | 287 kts | 69° |
| 2026-04-28 16:32 | 54.74325 | -5.83199 | 10232 ft | 292 kts | 70° |
| 2026-04-28 16:32 | 54.75828 | -5.76146 | 11034 ft | 334 kts | 70° |
| 2026-04-28 16:32 | 54.76648 | -5.72252 | 11405 ft | 353 kts | 70° |
| 2026-04-28 16:33 | 54.77500 | -5.68186 | 12003 ft | 364 kts | 70° |
| 2026-04-28 16:33 | 54.78075 | -5.65439 | 12486 ft | 368 kts | 70° |
| 2026-04-28 16:33 | 54.79252 | -5.59815 | 13474 ft | 374 kts | 70° |
| 2026-04-28 16:33 | 54.80143 | -5.55549 | 14192 ft | 379 kts | 70° |
| 2026-04-28 16:34 | 54.81044 | -5.51230 | 14897 ft | 383 kts | 70° |
| 2026-04-28 16:34 | 54.81952 | -5.46867 | 15593 ft | 387 kts | 70° |
| 2026-04-28 16:34 | 54.82868 | -5.42459 | 16273 ft | 391 kts | 70° |
| 2026-04-28 16:34 | 54.83791 | -5.38000 | 16933 ft | 395 kts | 70° |
| 2026-04-28 16:35 | 54.84722 | -5.33499 | 17572 ft | 398 kts | 70° |
| 2026-04-28 16:35 | 54.85660 | -5.28951 | 18199 ft | 402 kts | 70° |
| 2026-04-28 16:35 | 54.86610 | -5.24363 | 18734 ft | 405 kts | 69° |
| 2026-04-28 16:35 | 54.87833 | -5.19947 | 18963 ft | 411 kts | 59° |
| 2026-04-28 16:36 | 54.89619 | -5.15966 | 19003 ft | 425 kts | 44° |
| 2026-04-28 16:36 | 54.91991 | -5.12868 | 18957 ft | 428 kts | 31° |
| 2026-04-28 16:36 | 54.94551 | -5.10444 | 18420 ft | 423 kts | 27° |
| 2026-04-28 16:36 | 54.97178 | -5.08170 | 17676 ft | 420 kts | 26° |
| 2026-04-28 16:37 | 54.99795 | -5.05934 | 17355 ft | 419 kts | 26° |
| 2026-04-28 16:37 | 55.02413 | -5.03688 | 17107 ft | 419 kts | 26° |
| 2026-04-28 16:37 | 55.05027 | -5.01432 | 17006 ft | 419 kts | 26° |
| 2026-04-28 16:38 | 55.10044 | -4.96365 | 16998 ft | 418 kts | 41° |
| 2026-04-28 16:38 | 55.11910 | -4.92504 | 17001 ft | 417 kts | 59° |
| 2026-04-28 16:38 | 55.13222 | -4.87988 | 17002 ft | 417 kts | 66° |
| 2026-04-28 16:38 | 55.14379 | -4.83347 | 17000 ft | 417 kts | 67° |
| 2026-04-28 16:39 | 55.15518 | -4.78676 | 16999 ft | 417 kts | 67° |
| 2026-04-28 16:39 | 55.16658 | -4.74004 | 17003 ft | 420 kts | 67° |
| 2026-04-28 16:39 | 55.17829 | -4.69227 | 17006 ft | 434 kts | 67° |
| 2026-04-28 16:39 | 55.19033 | -4.64324 | 17002 ft | 441 kts | 67° |
| 2026-04-28 16:40 | 55.20245 | -4.59393 | 17000 ft | 442 kts | 67° |
| 2026-04-28 16:40 | 55.21457 | -4.54453 | 17000 ft | 442 kts | 67° |
| 2026-04-28 16:40 | 55.22670 | -4.49503 | 17000 ft | 442 kts | 67° |
| 2026-04-28 16:40 | 55.23879 | -4.44558 | 17000 ft | 442 kts | 67° |
| 2026-04-28 16:41 | 55.25088 | -4.39605 | 17000 ft | 442 kts | 67° |
| 2026-04-28 16:41 | 55.26294 | -4.34654 | 17000 ft | 442 kts | 67° |
| 2026-04-28 16:41 | 55.27499 | -4.29692 | 17000 ft | 442 kts | 67° |
| 2026-04-28 16:41 | 55.28701 | -4.24736 | 17000 ft | 442 kts | 67° |
| 2026-04-28 16:42 | 55.29901 | -4.19774 | 17000 ft | 442 kts | 67° |
| 2026-04-28 16:42 | 55.31100 | -4.14806 | 17000 ft | 442 kts | 67° |
| 2026-04-28 16:42 | 55.32296 | -4.09838 | 17001 ft | 442 kts | 67° |
| 2026-04-28 16:42 | 55.33490 | -4.04869 | 17000 ft | 442 kts | 67° |
| 2026-04-28 16:43 | 55.34681 | -3.99898 | 16869 ft | 438 kts | 67° |
| 2026-04-28 16:43 | 55.35843 | -3.95041 | 16468 ft | 425 kts | 67° |
| 2026-04-28 16:43 | 55.36975 | -3.90298 | 15685 ft | 417 kts | 67° |
| 2026-04-28 16:43 | 55.38087 | -3.85625 | 14741 ft | 412 kts | 67° |
| 2026-04-28 16:44 | 55.39185 | -3.81001 | 13883 ft | 406 kts | 68° |
| 2026-04-28 16:44 | 55.40256 | -3.76482 | 13241 ft | 395 kts | 68° |
| 2026-04-28 16:44 | 55.41300 | -3.72068 | 12603 ft | 387 kts | 68° |
| 2026-04-28 16:44 | 55.42321 | -3.67742 | 11959 ft | 379 kts | 68° |
| 2026-04-28 16:45 | 55.43319 | -3.63505 | 11322 ft | 372 kts | 68° |
| 2026-04-28 16:45 | 55.44301 | -3.59330 | 10544 ft | 368 kts | 68° |
| 2026-04-28 16:45 | 55.45289 | -3.55118 | 9592 ft | 377 kts | 68° |
| 2026-04-28 16:45 | 55.46302 | -3.50793 | 9399 ft | 384 kts | 68° |
| 2026-04-28 16:46 | 55.47317 | -3.46449 | 9181 ft | 382 kts | 68° |
| 2026-04-28 16:46 | 55.48321 | -3.42150 | 8645 ft | 377 kts | 68° |
| 2026-04-28 16:46 | 55.49334 | -3.37910 | 8232 ft | 375 kts | 64° |
| 2026-04-28 16:46 | 55.50905 | -3.34267 | 8037 ft | 375 kts | 41° |
| 2026-04-28 16:47 | 55.53076 | -3.31737 | 7858 ft | 374 kts | 28° |
| 2026-04-28 16:47 | 55.55365 | -3.29607 | 7666 ft | 367 kts | 27° |
| 2026-04-28 16:47 | 55.57552 | -3.27598 | 7439 ft | 351 kts | 27° |
| 2026-04-28 16:47 | 55.59658 | -3.25623 | 7191 ft | 335 kts | 28° |
| 2026-04-28 16:48 | 55.61692 | -3.23680 | 6895 ft | 322 kts | 28° |
| 2026-04-28 16:48 | 55.63604 | -3.21830 | 6687 ft | 314 kts | 28° |
| 2026-04-28 16:48 | 55.65505 | -3.19978 | 6551 ft | 308 kts | 28° |
| 2026-04-28 16:48 | 55.67335 | -3.18187 | 6391 ft | 294 kts | 28° |
| 2026-04-28 16:49 | 55.69212 | -3.16980 | 6205 ft | 281 kts | 6° |
| 2026-04-28 16:49 | 55.71064 | -3.17461 | 5953 ft | 265 kts | 333° |
| 2026-04-28 16:49 | 55.72432 | -3.19485 | 5572 ft | 255 kts | 302° |
| 2026-04-28 16:49 | 55.73139 | -3.22307 | 5143 ft | 248 kts | 287° |
| 2026-04-28 16:50 | 55.73609 | -3.25227 | 4652 ft | 245 kts | 284° |
| 2026-04-28 16:50 | 55.74042 | -3.28144 | 4131 ft | 244 kts | 284° |
| 2026-04-28 16:50 | 55.74478 | -3.31057 | 3684 ft | 243 kts | 284° |
| 2026-04-28 16:50 | 55.74920 | -3.33951 | 3531 ft | 244 kts | 284° |
| 2026-04-28 16:51 | 55.75368 | -3.36852 | 3510 ft | 243 kts | 285° |
| 2026-04-28 16:51 | 55.75819 | -3.39745 | 3512 ft | 243 kts | 285° |
| 2026-04-28 16:51 | 55.76265 | -3.42607 | 3506 ft | 237 kts | 285° |
| 2026-04-28 16:51 | 55.76701 | -3.45396 | 3515 ft | 233 kts | 285° |
| 2026-04-28 16:52 | 55.77131 | -3.48156 | 3508 ft | 229 kts | 285° |
| 2026-04-28 16:52 | 55.77537 | -3.50762 | 3504 ft | 209 kts | 285° |
| 2026-04-28 16:52 | 55.77914 | -3.53188 | 3509 ft | 201 kts | 284° |
| 2026-04-28 16:52 | 55.78270 | -3.55479 | 3486 ft | 183 kts | 284° |
| 2026-04-28 16:53 | 55.78609 | -3.57663 | 3517 ft | 187 kts | 284° |
| 2026-04-28 16:53 | 55.78957 | -3.59913 | 3514 ft | 190 kts | 284° |
| 2026-04-28 16:53 | 55.79308 | -3.62183 | 3513 ft | 191 kts | 284° |
| 2026-04-28 16:53 | 55.79659 | -3.64457 | 3512 ft | 191 kts | 284° |
| 2026-04-28 16:54 | 55.79891 | -3.65958 | 3511 ft | 188 kts | 284° |
| 2026-04-28 16:54 | 55.80223 | -3.68100 | 3486 ft | 172 kts | 284° |
| 2026-04-28 16:54 | 55.80652 | -3.70055 | 3502 ft | 171 kts | 302° |
| 2026-04-28 16:54 | 55.81531 | -3.71425 | 3505 ft | 171 kts | 338° |
| 2026-04-28 16:55 | 55.82699 | -3.71577 | 3510 ft | 171 kts | 16° |
| 2026-04-28 16:55 | 55.83682 | -3.70437 | 3517 ft | 172 kts | 50° |
| 2026-04-28 16:55 | 55.84369 | -3.68687 | 3521 ft | 173 kts | 59° |
| 2026-04-28 16:55 | 55.84984 | -3.66834 | 3515 ft | 174 kts | 60° |